sensor_id;sensor_type;location;lat;lon;timestamp;pressure;altitude;pressure_sealevel;temperature;humidity
73633;BME280;61927;50.080;14.418;2023-12-20T00:01:21;99112.97;;;7.09;62.04
73633;BME280;61927;50.080;14.418;2023-12-20T00:03:47;99095.94;;;6.99;62.65
73633;BME280;61927;50.080;14.418;2023-12-20T00:06:12;99098.69;;;7.13;61.74
73633;BME280;61927;50.080;14.418;2023-12-20T00:08:38;99109.50;;;7.08;62.25
73633;BME280;61927;50.080;14.418;2023-12-20T00:11:04;99094.19;;;7.15;62.40
73633;BME280;61927;50.080;14.418;2023-12-20T00:13:29;99105.84;;;7.11;62.67
73633;BME280;61927;50.080;14.418;2023-12-20T00:15:55;99097.84;;;7.12;63.13
73633;BME280;61927;50.080;14.418;2023-12-20T00:18:21;99101.34;;;7.13;62.79
73633;BME280;61927;50.080;14.418;2023-12-20T00:20:46;99101.50;;;7.10;63.73
73633;BME280;61927;50.080;14.418;2023-12-20T00:23:12;99092.44;;;6.98;63.82
73633;BME280;61927;50.080;14.418;2023-12-20T00:25:37;99080.69;;;6.88;64.26
73633;BME280;61927;50.080;14.418;2023-12-20T00:28:03;99084.44;;;7.00;64.82
73633;BME280;61927;50.080;14.418;2023-12-20T00:30:28;99079.91;;;6.86;65.66
73633;BME280;61927;50.080;14.418;2023-12-20T00:32:55;99091.56;;;6.82;65.78
73633;BME280;61927;50.080;14.418;2023-12-20T00:35:21;99101.47;;;6.94;65.74
73633;BME280;61927;50.080;14.418;2023-12-20T00:37:46;99113.41;;;6.84;66.32
73633;BME280;61927;50.080;14.418;2023-12-20T00:40:12;99107.63;;;6.77;66.59
73633;BME280;61927;50.080;14.418;2023-12-20T00:42:38;99087.75;;;6.88;67.26
73633;BME280;61927;50.080;14.418;2023-12-20T00:45:04;99078.28;;;6.84;67.42
73633;BME280;61927;50.080;14.418;2023-12-20T00:47:30;99088.38;;;6.75;67.30
73633;BME280;61927;50.080;14.418;2023-12-20T00:49:57;99090.41;;;6.70;67.97
73633;BME280;61927;50.080;14.418;2023-12-20T00:52:23;99070.78;;;6.76;68.01
73633;BME280;61927;50.080;14.418;2023-12-20T00:54:49;99061.16;;;6.75;67.95
73633;BME280;61927;50.080;14.418;2023-12-20T00:57:14;99064.56;;;6.77;67.92
73633;BME280;61927;50.080;14.418;2023-12-20T00:59:40;99057.34;;;6.80;69.01
73633;BME280;61927;50.080;14.418;2023-12-20T01:02:06;99046.88;;;6.79;68.62
73633;BME280;61927;50.080;14.418;2023-12-20T01:04:32;99043.31;;;6.80;69.42
73633;BME280;61927;50.080;14.418;2023-12-20T01:06:57;99040.47;;;6.67;70.55
73633;BME280;61927;50.080;14.418;2023-12-20T01:09:23;99059.16;;;6.63;70.64
73633;BME280;61927;50.080;14.418;2023-12-20T01:11:52;99059.94;;;6.65;70.95
73633;BME280;61927;50.080;14.418;2023-12-20T01:14:18;99057.47;;;6.44;71.45
73633;BME280;61927;50.080;14.418;2023-12-20T01:16:44;99056.38;;;6.48;71.75
73633;BME280;61927;50.080;14.418;2023-12-20T01:19:09;99059.41;;;6.58;71.97
73633;BME280;61927;50.080;14.418;2023-12-20T01:21:35;99052.25;;;6.60;72.06
73633;BME280;61927;50.080;14.418;2023-12-20T01:24:00;99046.94;;;6.44;72.77
73633;BME280;61927;50.080;14.418;2023-12-20T01:26:26;99029.22;;;6.64;72.53
73633;BME280;61927;50.080;14.418;2023-12-20T01:28:52;99036.81;;;6.70;72.10
73633;BME280;61927;50.080;14.418;2023-12-20T01:31:17;99025.34;;;6.71;72.57
73633;BME280;61927;50.080;14.418;2023-12-20T01:33:43;99022.19;;;6.64;72.30
73633;BME280;61927;50.080;14.418;2023-12-20T01:36:08;99018.84;;;6.61;73.25
73633;BME280;61927;50.080;14.418;2023-12-20T01:38:34;99011.72;;;6.63;73.02
73633;BME280;61927;50.080;14.418;2023-12-20T01:41:00;99003.81;;;6.63;73.26
73633;BME280;61927;50.080;14.418;2023-12-20T01:43:25;98999.31;;;6.65;73.57
73633;BME280;61927;50.080;14.418;2023-12-20T01:45:51;98991.78;;;6.57;73.70
73633;BME280;61927;50.080;14.418;2023-12-20T01:48:18;98977.34;;;6.64;73.69
73633;BME280;61927;50.080;14.418;2023-12-20T01:50:45;98973.09;;;6.62;74.33
73633;BME280;61927;50.080;14.418;2023-12-20T01:53:12;98985.50;;;6.60;74.24
73633;BME280;61927;50.080;14.418;2023-12-20T01:55:41;98988.84;;;6.63;74.46
73633;BME280;61927;50.080;14.418;2023-12-20T01:58:08;98978.38;;;6.62;74.46
73633;BME280;61927;50.080;14.418;2023-12-20T02:00:35;98987.34;;;6.42;75.27
73633;BME280;61927;50.080;14.418;2023-12-20T02:03:02;98980.66;;;6.52;75.55
73633;BME280;61927;50.080;14.418;2023-12-20T02:05:30;98978.94;;;6.51;75.66
73633;BME280;61927;50.080;14.418;2023-12-20T02:07:55;98984.69;;;6.42;76.18
73633;BME280;61927;50.080;14.418;2023-12-20T02:10:21;98976.56;;;6.46;76.60
73633;BME280;61927;50.080;14.418;2023-12-20T02:12:47;98976.63;;;6.45;76.58
73633;BME280;61927;50.080;14.418;2023-12-20T02:15:12;98974.53;;;6.52;77.15
73633;BME280;61927;50.080;14.418;2023-12-20T02:17:38;98979.34;;;6.43;77.33
73633;BME280;61927;50.080;14.418;2023-12-20T02:20:05;98975.44;;;6.51;76.80
73633;BME280;61927;50.080;14.418;2023-12-20T02:22:31;98981.66;;;6.50;76.69
73633;BME280;61927;50.080;14.418;2023-12-20T02:24:57;98983.53;;;6.47;77.39
73633;BME280;61927;50.080;14.418;2023-12-20T02:27:23;98983.28;;;6.52;76.61
73633;BME280;61927;50.080;14.418;2023-12-20T02:29:49;98980.88;;;6.47;76.49
73633;BME280;61927;50.080;14.418;2023-12-20T02:32:16;98988.72;;;6.49;76.64
73633;BME280;61927;50.080;14.418;2023-12-20T02:34:42;98980.81;;;6.49;76.41
73633;BME280;61927;50.080;14.418;2023-12-20T02:37:08;98976.88;;;6.40;77.58
73633;BME280;61927;50.080;14.418;2023-12-20T02:39:33;98976.56;;;6.29;77.61
73633;BME280;61927;50.080;14.418;2023-12-20T02:41:59;98979.69;;;6.20;78.24
73633;BME280;61927;50.080;14.418;2023-12-20T02:44:24;98974.22;;;6.40;76.86
73633;BME280;61927;50.080;14.418;2023-12-20T02:46:50;98971.16;;;6.32;77.39
73633;BME280;61927;50.080;14.418;2023-12-20T02:49:16;98975.50;;;6.33;78.12
73633;BME280;61927;50.080;14.418;2023-12-20T02:51:41;98973.41;;;6.23;78.66
73633;BME280;61927;50.080;14.418;2023-12-20T02:54:07;98974.72;;;6.31;78.21
73633;BME280;61927;50.080;14.418;2023-12-20T02:56:33;98965.16;;;6.46;78.03
73633;BME280;61927;50.080;14.418;2023-12-20T02:58:59;98980.28;;;6.42;78.24
73633;BME280;61927;50.080;14.418;2023-12-20T03:01:24;98971.53;;;6.42;78.78
73633;BME280;61927;50.080;14.418;2023-12-20T03:03:50;98971.34;;;6.45;78.53
73633;BME280;61927;50.080;14.418;2023-12-20T03:06:18;98971.59;;;6.40;79.07
73633;BME280;61927;50.080;14.418;2023-12-20T03:08:44;98974.31;;;6.39;80.33
73633;BME280;61927;50.080;14.418;2023-12-20T03:11:10;98966.31;;;6.40;79.26
73633;BME280;61927;50.080;14.418;2023-12-20T03:13:36;98966.81;;;6.31;79.45
73633;BME280;61927;50.080;14.418;2023-12-20T03:16:03;98965.72;;;6.35;79.89
73633;BME280;61927;50.080;14.418;2023-12-20T03:18:33;98964.03;;;6.17;79.41
73633;BME280;61927;50.080;14.418;2023-12-20T03:20:58;98959.84;;;6.30;79.75
73633;BME280;61927;50.080;14.418;2023-12-20T03:23:24;98957.00;;;6.18;80.20
73633;BME280;61927;50.080;14.418;2023-12-20T03:25:49;98959.47;;;6.21;80.85
73633;BME280;61927;50.080;14.418;2023-12-20T03:28:15;98963.09;;;6.35;79.97
73633;BME280;61927;50.080;14.418;2023-12-20T03:30:41;98966.50;;;6.37;79.81
73633;BME280;61927;50.080;14.418;2023-12-20T03:33:06;98965.88;;;6.32;80.10
73633;BME280;61927;50.080;14.418;2023-12-20T03:35:32;98964.09;;;6.33;79.91
73633;BME280;61927;50.080;14.418;2023-12-20T03:37:58;98961.69;;;6.28;80.08
73633;BME280;61927;50.080;14.418;2023-12-20T03:40:25;98957.03;;;6.33;79.90
73633;BME280;61927;50.080;14.418;2023-12-20T03:42:51;98962.84;;;6.40;79.36
73633;BME280;61927;50.080;14.418;2023-12-20T03:45:16;98968.69;;;6.29;79.90
73633;BME280;61927;50.080;14.418;2023-12-20T03:47:42;98956.75;;;6.22;80.38
73633;BME280;61927;50.080;14.418;2023-12-20T03:50:08;98955.50;;;6.29;80.83
73633;BME280;61927;50.080;14.418;2023-12-20T03:52:34;98972.31;;;6.27;80.78
73633;BME280;61927;50.080;14.418;2023-12-20T03:54:59;98964.13;;;6.15;79.89
73633;BME280;61927;50.080;14.418;2023-12-20T03:57:25;98965.38;;;6.08;79.65
73633;BME280;61927;50.080;14.418;2023-12-20T03:59:50;98971.66;;;6.06;80.44
73633;BME280;61927;50.080;14.418;2023-12-20T04:02:16;98964.13;;;6.15;81.15
73633;BME280;61927;50.080;14.418;2023-12-20T04:04:43;98969.69;;;6.27;80.40
73633;BME280;61927;50.080;14.418;2023-12-20T04:07:09;98961.25;;;6.20;79.78
73633;BME280;61927;50.080;14.418;2023-12-20T04:09:34;98966.56;;;6.36;79.78
73633;BME280;61927;50.080;14.418;2023-12-20T04:12:00;98970.38;;;6.30;80.02
73633;BME280;61927;50.080;14.418;2023-12-20T04:14:26;98958.91;;;6.31;80.30
73633;BME280;61927;50.080;14.418;2023-12-20T04:16:52;98960.88;;;6.10;80.61
73633;BME280;61927;50.080;14.418;2023-12-20T04:19:17;98966.84;;;6.14;81.19
73633;BME280;61927;50.080;14.418;2023-12-20T04:21:43;98967.75;;;6.13;80.62
73633;BME280;61927;50.080;14.418;2023-12-20T04:24:09;98969.16;;;6.03;80.88
73633;BME280;61927;50.080;14.418;2023-12-20T04:26:34;98971.16;;;5.80;81.97
73633;BME280;61927;50.080;14.418;2023-12-20T04:29:00;98974.66;;;5.98;81.70
73633;BME280;61927;50.080;14.418;2023-12-20T04:31:25;98981.31;;;6.05;80.39
73633;BME280;61927;50.080;14.418;2023-12-20T04:33:51;98985.03;;;6.19;79.66
73633;BME280;61927;50.080;14.418;2023-12-20T04:36:17;98974.72;;;6.31;79.20
73633;BME280;61927;50.080;14.418;2023-12-20T04:38:42;98977.97;;;6.19;79.88
73633;BME280;61927;50.080;14.418;2023-12-20T04:41:08;98986.28;;;6.11;80.64
73633;BME280;61927;50.080;14.418;2023-12-20T04:43:33;98973.09;;;6.11;79.65
73633;BME280;61927;50.080;14.418;2023-12-20T04:45:59;98982.47;;;6.17;79.58
73633;BME280;61927;50.080;14.418;2023-12-20T04:48:24;98985.97;;;6.18;80.71
73633;BME280;61927;50.080;14.418;2023-12-20T04:50:50;98986.44;;;6.26;79.50
73633;BME280;61927;50.080;14.418;2023-12-20T04:53:15;98978.59;;;6.24;79.50
73633;BME280;61927;50.080;14.418;2023-12-20T04:55:41;98988.13;;;6.27;79.28
73633;BME280;61927;50.080;14.418;2023-12-20T04:58:07;98979.50;;;5.89;81.62
73633;BME280;61927;50.080;14.418;2023-12-20T05:00:32;98987.78;;;5.81;81.67
73633;BME280;61927;50.080;14.418;2023-12-20T05:02:58;98983.81;;;5.91;82.03
73633;BME280;61927;50.080;14.418;2023-12-20T05:05:23;98984.03;;;6.04;81.05
73633;BME280;61927;50.080;14.418;2023-12-20T05:07:49;98979.94;;;5.98;81.12
73633;BME280;61927;50.080;14.418;2023-12-20T05:10:15;98975.06;;;6.08;80.41
73633;BME280;61927;50.080;14.418;2023-12-20T05:12:40;98980.78;;;6.16;81.22
73633;BME280;61927;50.080;14.418;2023-12-20T05:15:06;98983.34;;;6.18;79.91
73633;BME280;61927;50.080;14.418;2023-12-20T05:17:32;98979.13;;;6.31;79.27
73633;BME280;61927;50.080;14.418;2023-12-20T05:19:57;98984.81;;;6.23;79.21
73633;BME280;61927;50.080;14.418;2023-12-20T05:22:23;98983.63;;;6.29;78.67
73633;BME280;61927;50.080;14.418;2023-12-20T05:24:49;98986.66;;;6.04;80.14
73633;BME280;61927;50.080;14.418;2023-12-20T05:27:15;98992.16;;;5.99;80.96
73633;BME280;61927;50.080;14.418;2023-12-20T05:29:40;98982.78;;;6.11;80.48
73633;BME280;61927;50.080;14.418;2023-12-20T05:32:06;98991.94;;;6.04;81.45
73633;BME280;61927;50.080;14.418;2023-12-20T05:34:32;98997.81;;;6.09;80.88
73633;BME280;61927;50.080;14.418;2023-12-20T05:36:58;98993.78;;;6.19;80.10
73633;BME280;61927;50.080;14.418;2023-12-20T05:39:23;98999.06;;;6.19;79.70
73633;BME280;61927;50.080;14.418;2023-12-20T05:41:49;98998.22;;;6.01;79.87
73633;BME280;61927;50.080;14.418;2023-12-20T05:44:15;98994.72;;;6.01;80.61
73633;BME280;61927;50.080;14.418;2023-12-20T05:46:40;98999.53;;;6.10;79.75
73633;BME280;61927;50.080;14.418;2023-12-20T05:49:06;99000.22;;;6.13;79.72
73633;BME280;61927;50.080;14.418;2023-12-20T05:51:32;98993.28;;;5.76;81.09
73633;BME280;61927;50.080;14.418;2023-12-20T05:53:58;98999.81;;;5.87;80.89
73633;BME280;61927;50.080;14.418;2023-12-20T05:56:24;99002.72;;;5.99;80.44
73633;BME280;61927;50.080;14.418;2023-12-20T05:58:49;99000.78;;;6.03;80.71
73633;BME280;61927;50.080;14.418;2023-12-20T06:01:15;99005.66;;;5.93;80.70
73633;BME280;61927;50.080;14.418;2023-12-20T06:03:43;98999.78;;;5.69;81.51
73633;BME280;61927;50.080;14.418;2023-12-20T06:06:09;99001.34;;;5.73;81.87
73633;BME280;61927;50.080;14.418;2023-12-20T06:08:35;98994.53;;;5.87;81.20
73633;BME280;61927;50.080;14.418;2023-12-20T06:11:01;98987.56;;;5.86;81.99
73633;BME280;61927;50.080;14.418;2023-12-20T06:13:27;98997.31;;;5.83;81.87
73633;BME280;61927;50.080;14.418;2023-12-20T06:15:54;98999.16;;;5.64;81.19
73633;BME280;61927;50.080;14.418;2023-12-20T06:18:21;99003.91;;;5.75;82.28
73633;BME280;61927;50.080;14.418;2023-12-20T06:20:46;99010.50;;;5.83;81.85
73633;BME280;61927;50.080;14.418;2023-12-20T06:23:12;99008.44;;;5.90;80.26
73633;BME280;61927;50.080;14.418;2023-12-20T06:25:37;99012.78;;;5.91;80.73
73633;BME280;61927;50.080;14.418;2023-12-20T06:28:03;99010.50;;;5.83;80.99
73633;BME280;61927;50.080;14.418;2023-12-20T06:30:29;99014.81;;;5.84;81.15
73633;BME280;61927;50.080;14.418;2023-12-20T06:32:55;99014.03;;;5.82;81.14
73633;BME280;61927;50.080;14.418;2023-12-20T06:35:22;99015.91;;;5.80;80.95
73633;BME280;61927;50.080;14.418;2023-12-20T06:37:48;99010.38;;;5.68;81.46
73633;BME280;61927;50.080;14.418;2023-12-20T06:40:14;99015.13;;;5.78;81.80
73633;BME280;61927;50.080;14.418;2023-12-20T06:42:40;99020.59;;;5.93;81.22
73633;BME280;61927;50.080;14.418;2023-12-20T06:45:05;99020.91;;;6.04;79.83
73633;BME280;61927;50.080;14.418;2023-12-20T06:47:31;99028.00;;;5.84;80.44
73633;BME280;61927;50.080;14.418;2023-12-20T06:49:57;99037.16;;;5.95;80.69
73633;BME280;61927;50.080;14.418;2023-12-20T06:52:23;99035.97;;;5.83;81.02
73633;BME280;61927;50.080;14.418;2023-12-20T06:54:48;99049.66;;;5.72;80.67
73633;BME280;61927;50.080;14.418;2023-12-20T06:57:14;99047.59;;;5.60;80.37
73633;BME280;61927;50.080;14.418;2023-12-20T06:59:41;99061.41;;;5.65;82.59
73633;BME280;61927;50.080;14.418;2023-12-20T07:02:07;99062.00;;;5.53;81.41
73633;BME280;61927;50.080;14.418;2023-12-20T07:04:33;99057.78;;;5.49;81.98
73633;BME280;61927;50.080;14.418;2023-12-20T07:06:59;99060.25;;;5.71;81.11
73633;BME280;61927;50.080;14.418;2023-12-20T07:09:26;99060.44;;;5.49;81.91
73633;BME280;61927;50.080;14.418;2023-12-20T07:11:52;99063.63;;;5.56;81.48
73633;BME280;61927;50.080;14.418;2023-12-20T07:14:18;99068.97;;;5.54;81.92
73633;BME280;61927;50.080;14.418;2023-12-20T07:16:44;99070.75;;;5.35;82.04
73633;BME280;61927;50.080;14.418;2023-12-20T07:19:09;99074.16;;;5.37;81.81
73633;BME280;61927;50.080;14.418;2023-12-20T07:21:35;99088.16;;;5.37;82.53
73633;BME280;61927;50.080;14.418;2023-12-20T07:24:00;99084.25;;;5.46;81.56
73633;BME280;61927;50.080;14.418;2023-12-20T07:26:26;99071.88;;;5.48;82.00
73633;BME280;61927;50.080;14.418;2023-12-20T07:28:52;99091.94;;;5.50;81.34
73633;BME280;61927;50.080;14.418;2023-12-20T07:31:17;99104.16;;;5.33;82.34
73633;BME280;61927;50.080;14.418;2023-12-20T07:33:43;99090.00;;;5.16;83.24
73633;BME280;61927;50.080;14.418;2023-12-20T07:36:09;99099.75;;;5.14;83.07
73633;BME280;61927;50.080;14.418;2023-12-20T07:38:34;99101.09;;;5.04;84.59
73633;BME280;61927;50.080;14.418;2023-12-20T07:41:00;99110.13;;;5.17;82.74
73633;BME280;61927;50.080;14.418;2023-12-20T07:43:26;99116.75;;;5.45;83.13
73633;BME280;61927;50.080;14.418;2023-12-20T07:45:51;99108.22;;;5.59;81.33
73633;BME280;61927;50.080;14.418;2023-12-20T07:48:17;99110.41;;;5.68;80.57
73633;BME280;61927;50.080;14.418;2023-12-20T07:50:42;99108.63;;;5.68;80.38
73633;BME280;61927;50.080;14.418;2023-12-20T07:53:08;99122.50;;;5.34;81.05
73633;BME280;61927;50.080;14.418;2023-12-20T07:55:33;99120.88;;;5.50;80.97
73633;BME280;61927;50.080;14.418;2023-12-20T07:58:00;99113.25;;;5.63;80.81
73633;BME280;61927;50.080;14.418;2023-12-20T08:00:26;99113.75;;;5.71;80.19
73633;BME280;61927;50.080;14.418;2023-12-20T08:02:53;99107.00;;;5.47;80.73
73633;BME280;61927;50.080;14.418;2023-12-20T08:05:19;99110.69;;;5.62;81.31
73633;BME280;61927;50.080;14.418;2023-12-20T08:07:44;99101.25;;;5.58;80.53
73633;BME280;61927;50.080;14.418;2023-12-20T08:10:10;99095.81;;;5.79;80.20
73633;BME280;61927;50.080;14.418;2023-12-20T08:12:36;99095.97;;;5.76;79.86
73633;BME280;61927;50.080;14.418;2023-12-20T08:15:02;99103.41;;;5.86;79.82
73633;BME280;61927;50.080;14.418;2023-12-20T08:17:29;99102.28;;;5.72;79.69
73633;BME280;61927;50.080;14.418;2023-12-20T08:19:54;99111.97;;;5.72;79.34
73633;BME280;61927;50.080;14.418;2023-12-20T08:22:20;99114.88;;;5.84;79.37
73633;BME280;61927;50.080;14.418;2023-12-20T08:24:46;99120.00;;;5.88;79.27
73633;BME280;61927;50.080;14.418;2023-12-20T08:27:11;99121.78;;;5.68;78.75
73633;BME280;61927;50.080;14.418;2023-12-20T08:29:38;99120.59;;;5.75;79.02
73633;BME280;61927;50.080;14.418;2023-12-20T08:32:04;99120.81;;;5.90;78.56
73633;BME280;61927;50.080;14.418;2023-12-20T08:34:30;99114.88;;;5.84;79.02
73633;BME280;61927;50.080;14.418;2023-12-20T08:36:56;99129.13;;;5.80;78.93
73633;BME280;61927;50.080;14.418;2023-12-20T08:39:22;99127.78;;;5.72;79.28
73633;BME280;61927;50.080;14.418;2023-12-20T08:41:47;99133.75;;;5.75;79.70
73633;BME280;61927;50.080;14.418;2023-12-20T08:44:14;99125.72;;;5.60;79.53
73633;BME280;61927;50.080;14.418;2023-12-20T08:46:39;99132.19;;;5.53;79.25
73633;BME280;61927;50.080;14.418;2023-12-20T08:49:05;99128.13;;;5.64;79.57
73633;BME280;61927;50.080;14.418;2023-12-20T08:51:30;99133.31;;;5.66;78.58
73633;BME280;61927;50.080;14.418;2023-12-20T08:53:56;99127.78;;;5.72;79.21
73633;BME280;61927;50.080;14.418;2023-12-20T08:56:22;99123.13;;;5.77;78.97
73633;BME280;61927;50.080;14.418;2023-12-20T08:58:47;99119.03;;;5.90;78.78
73633;BME280;61927;50.080;14.418;2023-12-20T09:01:14;99126.41;;;6.01;77.92
73633;BME280;61927;50.080;14.418;2023-12-20T09:03:40;99124.72;;;6.00;78.11
73633;BME280;61927;50.080;14.418;2023-12-20T09:06:06;99134.16;;;6.04;77.45
73633;BME280;61927;50.080;14.418;2023-12-20T09:08:32;99129.91;;;6.01;77.58
73633;BME280;61927;50.080;14.418;2023-12-20T09:10:58;99125.72;;;5.97;77.85
73633;BME280;61927;50.080;14.418;2023-12-20T09:13:24;99120.38;;;5.99;78.15
73633;BME280;61927;50.080;14.418;2023-12-20T09:15:56;99125.84;;;5.94;78.36
73633;BME280;61927;50.080;14.418;2023-12-20T09:18:22;99120.72;;;5.91;78.20
73633;BME280;61927;50.080;14.418;2023-12-20T09:20:48;99128.25;;;5.99;78.66
73633;BME280;61927;50.080;14.418;2023-12-20T09:23:13;99126.06;;;5.90;78.60
73633;BME280;61927;50.080;14.418;2023-12-20T09:25:39;99124.41;;;5.87;78.95
73633;BME280;61927;50.080;14.418;2023-12-20T09:28:05;99129.69;;;5.87;77.87
73633;BME280;61927;50.080;14.418;2023-12-20T09:30:31;99129.75;;;5.86;78.74
73633;BME280;61927;50.080;14.418;2023-12-20T09:32:57;99133.81;;;5.93;77.76
73633;BME280;61927;50.080;14.418;2023-12-20T09:35:23;99142.69;;;6.09;77.67
73633;BME280;61927;50.080;14.418;2023-12-20T09:37:49;99136.75;;;6.23;77.24
73633;BME280;61927;50.080;14.418;2023-12-20T09:40:18;99138.75;;;6.18;76.88
73633;BME280;61927;50.080;14.418;2023-12-20T09:42:57;99149.84;;;6.24;77.04
73633;BME280;61927;50.080;14.418;2023-12-20T09:45:23;99138.75;;;6.18;77.01
73633;BME280;61927;50.080;14.418;2023-12-20T09:47:53;99140.69;;;6.14;77.47
73633;BME280;61927;50.080;14.418;2023-12-20T09:50:21;99134.28;;;6.20;77.59
73633;BME280;61927;50.080;14.418;2023-12-20T09:52:51;99140.28;;;6.04;77.47
73633;BME280;61927;50.080;14.418;2023-12-20T09:55:18;99142.78;;;6.07;77.21
73633;BME280;61927;50.080;14.418;2023-12-20T09:57:46;99134.75;;;5.92;77.41
73633;BME280;61927;50.080;14.418;2023-12-20T10:00:12;99140.28;;;6.04;77.25
73633;BME280;61927;50.080;14.418;2023-12-20T10:02:56;99128.81;;;6.05;77.55
73633;BME280;61927;50.080;14.418;2023-12-20T10:05:28;99135.34;;;6.15;76.57
73633;BME280;61927;50.080;14.418;2023-12-20T10:07:54;99127.97;;;6.05;77.14
73633;BME280;61927;50.080;14.418;2023-12-20T10:10:20;99129.50;;;5.92;76.64
73633;BME280;61927;50.080;14.418;2023-12-20T10:13:06;99115.38;;;5.74;77.73
73633;BME280;61927;50.080;14.418;2023-12-20T10:15:35;99116.88;;;5.79;78.16
73633;BME280;61927;50.080;14.418;2023-12-20T10:18:02;99116.41;;;5.90;77.38
73633;BME280;61927;50.080;14.418;2023-12-20T10:20:28;99128.13;;;6.02;77.29
73633;BME280;61927;50.080;14.418;2023-12-20T10:22:55;99128.97;;;5.83;77.16
73633;BME280;61927;50.080;14.418;2023-12-20T10:25:22;99119.13;;;6.06;77.66
73633;BME280;61927;50.080;14.418;2023-12-20T10:27:49;99133.00;;;6.09;76.96
73633;BME280;61927;50.080;14.418;2023-12-20T10:30:15;99112.34;;;6.19;76.26
73633;BME280;61927;50.080;14.418;2023-12-20T10:32:41;99104.66;;;6.14;76.77
73633;BME280;61927;50.080;14.418;2023-12-20T10:35:08;99120.09;;;6.39;76.29
73633;BME280;61927;50.080;14.418;2023-12-20T10:37:36;99110.19;;;6.44;74.38
73633;BME280;61927;50.080;14.418;2023-12-20T10:40:03;99119.56;;;6.33;75.64
73633;BME280;61927;50.080;14.418;2023-12-20T10:42:30;99105.22;;;6.21;75.89
73633;BME280;61927;50.080;14.418;2023-12-20T10:44:56;99106.16;;;6.37;75.01
73633;BME280;61927;50.080;14.418;2023-12-20T10:47:24;99094.69;;;6.38;75.37
73633;BME280;61927;50.080;14.418;2023-12-20T10:49:52;99083.69;;;6.47;74.65
73633;BME280;61927;50.080;14.418;2023-12-20T10:52:18;99082.06;;;6.45;74.84
73633;BME280;61927;50.080;14.418;2023-12-20T10:54:44;99062.69;;;6.29;75.34
73633;BME280;61927;50.080;14.418;2023-12-20T10:57:11;99052.91;;;6.13;75.96
73633;BME280;61927;50.080;14.418;2023-12-20T10:59:37;99058.56;;;6.23;76.09
73633;BME280;61927;50.080;14.418;2023-12-20T11:02:05;99069.34;;;6.19;75.23
73633;BME280;61927;50.080;14.418;2023-12-20T11:04:38;99075.66;;;5.97;76.90
73633;BME280;61927;50.080;14.418;2023-12-20T11:07:20;99074.31;;;5.89;77.29
73633;BME280;61927;50.080;14.418;2023-12-20T11:09:58;99071.13;;;6.18;76.59
73633;BME280;61927;50.080;14.418;2023-12-20T11:12:37;99067.47;;;6.21;76.31
73633;BME280;61927;50.080;14.418;2023-12-20T11:15:06;99073.53;;;6.23;76.65
73633;BME280;61927;50.080;14.418;2023-12-20T11:17:32;99065.94;;;6.17;75.96
73633;BME280;61927;50.080;14.418;2023-12-20T11:22:26;99056.47;;;6.30;75.80
73633;BME280;61927;50.080;14.418;2023-12-20T11:24:52;99057.63;;;6.41;76.19
73633;BME280;61927;50.080;14.418;2023-12-20T11:27:19;99056.88;;;6.22;75.65
73633;BME280;61927;50.080;14.418;2023-12-20T11:29:52;99061.19;;;6.40;76.21
73633;BME280;61927;50.080;14.418;2023-12-20T11:34:47;99045.84;;;6.31;75.94
73633;BME280;61927;50.080;14.418;2023-12-20T11:37:14;99041.66;;;6.44;74.54
73633;BME280;61927;50.080;14.418;2023-12-20T11:39:39;99037.47;;;6.58;73.29
73633;BME280;61927;50.080;14.418;2023-12-20T11:42:05;99042.75;;;6.40;74.49
73633;BME280;61927;50.080;14.418;2023-12-20T11:44:32;99042.06;;;6.37;73.71
73633;BME280;61927;50.080;14.418;2023-12-20T11:46:58;99047.63;;;6.31;71.99
73633;BME280;61927;50.080;14.418;2023-12-20T11:49:24;99039.56;;;6.34;72.08
73633;BME280;61927;50.080;14.418;2023-12-20T11:51:50;99038.34;;;6.24;71.92
73633;BME280;61927;50.080;14.418;2023-12-20T11:54:16;99035.63;;;6.25;72.56
73633;BME280;61927;50.080;14.418;2023-12-20T11:56:43;99034.47;;;6.13;73.52
73633;BME280;61927;50.080;14.418;2023-12-20T11:59:08;99024.78;;;6.31;72.83
73633;BME280;61927;50.080;14.418;2023-12-20T12:01:34;99022.00;;;6.17;73.16
73633;BME280;61927;50.080;14.418;2023-12-20T12:04:07;99010.69;;;6.15;72.83
73633;BME280;61927;50.080;14.418;2023-12-20T12:06:33;99015.56;;;6.05;73.24
73633;BME280;61927;50.080;14.418;2023-12-20T12:08:59;99008.50;;;6.06;74.29
73633;BME280;61927;50.080;14.418;2023-12-20T12:11:25;99014.56;;;6.08;73.46
73633;BME280;61927;50.080;14.418;2023-12-20T12:13:51;99021.38;;;6.12;73.75
73633;BME280;61927;50.080;14.418;2023-12-20T12:16:18;99021.00;;;6.02;72.28
73633;BME280;61927;50.080;14.418;2023-12-20T12:18:55;99017.72;;;6.14;71.74
73633;BME280;61927;50.080;14.418;2023-12-20T12:21:21;99017.97;;;6.10;72.09
73633;BME280;61927;50.080;14.418;2023-12-20T12:23:46;99006.03;;;6.20;71.63
73633;BME280;61927;50.080;14.418;2023-12-20T12:26:12;99003.84;;;6.28;70.82
73633;BME280;61927;50.080;14.418;2023-12-20T12:28:40;98994.94;;;6.31;69.75
73633;BME280;61927;50.080;14.418;2023-12-20T12:31:07;98981.22;;;6.24;69.46
73633;BME280;61927;50.080;14.418;2023-12-20T12:33:34;98978.91;;;6.35;69.11
73633;BME280;61927;50.080;14.418;2023-12-20T12:36:03;98993.16;;;6.31;68.29
73633;BME280;61927;50.080;14.418;2023-12-20T12:38:30;98986.09;;;6.32;68.57
73633;BME280;61927;50.080;14.418;2023-12-20T12:40:56;98978.50;;;6.43;68.86
73633;BME280;61927;50.080;14.418;2023-12-20T12:43:22;98977.88;;;6.38;67.86
73633;BME280;61927;50.080;14.418;2023-12-20T12:45:48;98981.81;;;6.46;67.65
73633;BME280;61927;50.080;14.418;2023-12-20T12:48:14;98982.34;;;6.53;67.16
73633;BME280;61927;50.080;14.418;2023-12-20T12:50:40;98961.00;;;6.58;66.05
73633;BME280;61927;50.080;14.418;2023-12-20T12:53:05;98967.75;;;6.63;64.92
73633;BME280;61927;50.080;14.418;2023-12-20T12:55:32;98979.13;;;6.64;65.37
73633;BME280;61927;50.080;14.418;2023-12-20T12:57:58;98968.75;;;6.61;64.86
73633;BME280;61927;50.080;14.418;2023-12-20T13:00:23;98969.13;;;6.70;64.31